Snowflake, Virginia
Current Conditions -  °F | °C
As of 4:53 PM on Sunday 23 Nov 2014 (Local Time) from KTRI Reporting Station
Light Rain Light Rain  
Wind Chill: 55°   Ceiling: 10000
Heat Index: 55°   Visibility: 7mi
Dew Point: 51°   Wind: 8mph
Humidity: 86%   Direction: 70°ENE
Pressure: 29.76"   Gusts: NA
Location:  36.6668°N, 82.6167°W
Report Text: KTRI 232153Z 07007KT 7SM -RA FEW080 OVC100 13/11 A2976 RMK AO2 SLP070 P0003 T01280106
Loading
Personal Weather Stations






























Interactive Weather Map New forecast layout! Learn more

10-Day Weather Forecast

Advertisements
Track Severe Weather on mobile